createdAt,value
2019-03-13T00:03:28.654Z,1.20
2019-03-13T00:05:56.736Z,1.17
2019-03-13T00:08:24.401Z,1.30
2019-03-13T00:10:52.182Z,1.30
2019-03-13T00:13:19.845Z,1.20
2019-03-13T00:15:49.954Z,1.35
2019-03-13T00:18:17.501Z,1.05
2019-03-13T00:20:45.066Z,1.00
2019-03-13T00:23:13.495Z,1.20
2019-03-13T00:25:41.512Z,1.00
2019-03-13T00:28:10.530Z,1.00
2019-03-13T00:30:38.484Z,1.02
2019-03-13T00:33:06.103Z,1.10
2019-03-13T00:35:33.770Z,0.95
2019-03-13T00:38:01.391Z,1.10
2019-03-13T00:40:29.302Z,0.88
2019-03-13T00:42:57.414Z,1.25
2019-03-13T00:45:25.125Z,1.20
2019-03-13T00:47:53.275Z,1.12
2019-03-13T00:50:25.458Z,1.10
2019-03-13T00:52:52.846Z,1.10
2019-03-13T00:55:20.568Z,1.02
2019-03-13T00:57:48.344Z,0.88
2019-03-13T01:00:28.538Z,0.82
2019-03-13T01:02:56.062Z,0.80
2019-03-13T01:05:31.794Z,0.90
2019-03-13T01:07:59.704Z,0.98
2019-03-13T01:10:26.951Z,0.90
2019-03-13T01:12:54.389Z,0.90
2019-03-13T01:15:22.070Z,0.90
2019-03-13T01:17:49.739Z,0.80
2019-03-13T01:20:18.340Z,1.10
2019-03-13T01:22:45.971Z,0.90
2019-03-13T01:25:13.461Z,0.62
2019-03-13T01:27:40.996Z,0.70
2019-03-13T01:30:10.471Z,0.93
2019-03-13T01:32:51.940Z,0.60
2019-03-13T01:35:24.334Z,0.90
2019-03-13T01:37:52.047Z,0.82
2019-03-13T01:40:20.573Z,0.55
2019-03-13T01:42:48.790Z,0.55
2019-03-13T01:45:16.090Z,0.60
2019-03-13T01:47:44.846Z,0.57
2019-03-13T01:50:14.059Z,0.50
2019-03-13T01:52:41.652Z,0.82
2019-03-13T01:55:10.093Z,0.72
2019-03-13T01:57:38.204Z,0.60
2019-03-13T02:00:07.290Z,0.60
2019-03-13T02:02:34.949Z,0.60
2019-03-13T02:05:02.541Z,0.80
2019-03-13T02:07:30.239Z,0.60
2019-03-13T02:09:57.755Z,0.78
2019-03-13T02:12:25.652Z,0.50
2019-03-13T02:14:53.693Z,0.90
2019-03-13T02:17:21.320Z,0.82
2019-03-13T02:19:49.925Z,0.70
2019-03-13T02:22:17.983Z,0.60
2019-03-13T02:24:45.703Z,0.80
2019-03-13T02:27:12.898Z,0.72
2019-03-13T02:29:40.503Z,0.93
2019-03-13T02:32:07.779Z,1.10
2019-03-13T02:34:35.600Z,0.70
2019-03-13T02:37:03.781Z,0.98
2019-03-13T02:39:33.665Z,0.80
2019-03-13T02:42:02.218Z,0.88
2019-03-13T02:44:29.968Z,0.80
2019-03-13T02:46:58.000Z,0.60
2019-03-13T02:49:25.821Z,0.90
2019-03-13T02:51:53.557Z,0.72
2019-03-13T02:54:21.130Z,0.70
2019-03-13T02:56:49.930Z,0.80
2019-03-13T02:59:17.851Z,0.85
2019-03-13T03:01:50.545Z,0.60
2019-03-13T03:04:21.563Z,0.60
2019-03-13T03:06:50.069Z,0.80
2019-03-13T03:09:17.786Z,0.68
2019-03-13T03:11:45.483Z,0.50
2019-03-13T03:14:13.108Z,0.70
2019-03-13T03:16:40.845Z,0.70
2019-03-13T03:19:08.551Z,0.60
2019-03-13T03:21:36.004Z,0.68
2019-03-13T03:24:04.683Z,0.57
2019-03-13T03:26:32.686Z,0.60
2019-03-13T03:29:00.263Z,0.78
2019-03-13T03:31:27.981Z,0.57
2019-03-13T03:34:02.767Z,0.55
2019-03-13T03:36:30.525Z,0.57
2019-03-13T03:38:58.039Z,0.50
2019-03-13T03:41:26.292Z,0.50
2019-03-13T03:43:53.486Z,0.60
2019-03-13T03:46:21.246Z,0.50
2019-03-13T03:48:50.365Z,0.60
2019-03-13T03:51:18.010Z,0.47
2019-03-13T03:53:45.929Z,0.60
2019-03-13T03:56:13.403Z,0.50
2019-03-13T03:58:41.390Z,0.30
2019-03-13T04:01:08.584Z,0.20
2019-03-13T04:03:36.129Z,0.30
2019-03-13T04:06:03.727Z,0.20
2019-03-13T04:08:32.565Z,0.37
2019-03-13T04:11:02.055Z,0.20
2019-03-13T04:13:29.597Z,0.37
2019-03-13T04:15:57.418Z,0.30
2019-03-13T04:18:25.168Z,0.15
2019-03-13T04:20:53.330Z,0.20
2019-03-13T04:23:20.583Z,0.10
2019-03-13T04:25:48.356Z,0.20
2019-03-13T04:28:16.277Z,0.10
2019-03-13T04:30:43.554Z,0.10
2019-03-13T04:33:11.483Z,0.10
2019-03-13T04:35:39.487Z,0.20
2019-03-13T04:38:07.014Z,0.20
2019-03-13T04:40:34.613Z,0.20
2019-03-13T04:43:02.400Z,0.10
2019-03-13T04:45:30.524Z,0.20
2019-03-13T04:47:58.306Z,0.15
2019-03-13T04:50:25.966Z,0.10
2019-03-13T04:52:54.423Z,0.10
2019-03-13T04:55:21.918Z,0.20
2019-03-13T04:57:49.467Z,0.20
2019-03-13T05:00:17.822Z,0.20
2019-03-13T05:02:45.931Z,0.10
2019-03-13T05:05:49.113Z,0.20
2019-03-13T05:08:28.965Z,0.20
2019-03-13T05:10:56.687Z,0.23
2019-03-13T05:13:24.194Z,0.20
2019-03-13T05:15:51.853Z,0.20
2019-03-13T05:18:19.364Z,0.30
2019-03-13T05:20:47.179Z,0.20
2019-03-13T05:23:14.386Z,0.40
2019-03-13T05:25:41.862Z,0.10
2019-03-13T05:28:09.633Z,0.30
2019-03-13T05:30:37.865Z,0.20
2019-03-13T05:33:05.470Z,0.28
2019-03-13T05:35:32.992Z,0.20
2019-03-13T05:38:01.700Z,0.47
2019-03-13T05:40:28.940Z,0.20
2019-03-13T05:42:56.637Z,0.30
2019-03-13T05:45:25.986Z,0.30
2019-03-13T05:47:53.602Z,0.50
2019-03-13T05:50:21.722Z,0.33
2019-03-13T05:52:49.090Z,0.25
2019-03-13T05:55:16.377Z,0.20
2019-03-13T05:57:51.114Z,0.20
2019-03-13T06:00:20.353Z,0.30
2019-03-13T06:02:48.252Z,0.37
2019-03-13T06:05:15.579Z,0.28
2019-03-13T06:07:43.893Z,0.20
2019-03-13T06:10:11.534Z,0.40
2019-03-13T06:12:38.782Z,0.20
2019-03-13T06:15:06.425Z,0.35
2019-03-13T06:17:33.861Z,0.40
2019-03-13T06:20:01.763Z,0.28
2019-03-13T06:22:29.416Z,0.50
2019-03-13T06:24:57.181Z,0.40
2019-03-13T06:27:25.294Z,0.23
2019-03-13T06:29:53.077Z,0.40
2019-03-13T06:32:20.466Z,0.33
2019-03-13T06:34:48.174Z,0.40
2019-03-13T06:37:15.708Z,0.40
2019-03-13T06:39:43.396Z,0.40
2019-03-13T06:42:10.911Z,0.37
2019-03-13T06:44:38.599Z,0.30
2019-03-13T06:47:06.231Z,0.40
2019-03-13T06:49:33.724Z,0.30
2019-03-13T06:52:01.226Z,0.50
2019-03-13T06:54:29.124Z,0.40
2019-03-13T06:56:56.477Z,0.60
2019-03-13T06:59:34.375Z,0.30
2019-03-13T07:02:11.343Z,0.40
2019-03-13T07:05:01.454Z,0.57
2019-03-13T07:07:48.401Z,0.50
2019-03-13T07:10:22.243Z,0.30
2019-03-13T07:13:12.198Z,0.50
2019-03-13T07:15:44.139Z,0.50
2019-03-13T07:18:36.866Z,0.60
2019-03-13T07:21:13.146Z,0.78
2019-03-13T07:23:54.996Z,0.78
2019-03-13T07:26:42.258Z,0.60
2019-03-13T07:29:27.505Z,0.60
2019-03-13T07:32:14.589Z,0.30
2019-03-13T07:35:03.986Z,0.40
2019-03-13T07:37:49.774Z,0.40
2019-03-13T07:40:42.572Z,0.42
2019-03-13T07:43:32.292Z,0.40
2019-03-13T07:46:22.380Z,0.30
2019-03-13T07:49:08.267Z,0.30
2019-03-13T07:51:55.472Z,0.47
2019-03-13T07:54:29.737Z,0.60
2019-03-13T07:57:22.866Z,0.40
2019-03-13T08:00:10.293Z,0.50
2019-03-13T08:02:57.632Z,0.40
2019-03-13T08:05:56.564Z,0.30
2019-03-13T08:08:49.445Z,0.60
2019-03-13T08:11:39.530Z,0.30
2019-03-13T08:14:30.345Z,0.47
2019-03-13T08:17:07.002Z,0.50
2019-03-13T08:19:54.059Z,0.35
2019-03-13T08:22:43.974Z,0.50
2019-03-13T08:25:21.424Z,0.30
2019-03-13T08:28:11.626Z,0.40
2019-03-13T08:30:49.605Z,0.30
2019-03-13T08:33:48.098Z,0.40
2019-03-13T08:36:53.309Z,0.50
2019-03-13T08:39:27.478Z,0.40
2019-03-13T08:42:16.988Z,0.60
2019-03-13T08:45:09.970Z,0.40
2019-03-13T08:47:56.756Z,0.30
2019-03-13T08:50:41.273Z,0.53
2019-03-13T08:53:46.850Z,0.30
2019-03-13T08:56:20.748Z,0.50
2019-03-13T08:59:02.724Z,0.50
2019-03-13T09:01:59.907Z,0.40
2019-03-13T09:04:47.503Z,0.50
2019-03-13T09:07:40.373Z,0.40
2019-03-13T09:10:30.407Z,0.25
2019-03-13T09:13:24.765Z,0.50
2019-03-13T09:16:02.630Z,0.65
2019-03-13T09:18:38.986Z,0.30
2019-03-13T09:21:18.561Z,0.30
2019-03-13T09:24:18.451Z,0.47
2019-03-13T09:27:01.284Z,0.20
2019-03-13T09:29:47.979Z,0.30
2019-03-13T09:32:49.802Z,0.30
2019-03-13T09:35:36.058Z,0.23
2019-03-13T09:38:21.588Z,0.30
2019-03-13T09:41:14.382Z,0.30
2019-03-13T09:44:02.444Z,0.40
2019-03-13T09:46:47.978Z,0.30
2019-03-13T09:49:40.765Z,0.20
2019-03-13T09:52:25.458Z,0.30
2019-03-13T09:55:06.010Z,0.30
2019-03-13T09:57:48.859Z,0.40
2019-03-13T10:00:34.700Z,0.40
2019-03-13T10:03:21.643Z,0.35
2019-03-13T10:06:09.587Z,0.30
2019-03-13T10:08:50.198Z,0.37
2019-03-13T10:11:26.138Z,0.30
2019-03-13T10:14:14.502Z,0.47
2019-03-13T10:17:20.626Z,0.20
2019-03-13T10:19:55.476Z,0.40
2019-03-13T10:22:37.543Z,0.30
2019-03-13T10:25:23.647Z,0.20
2019-03-13T10:28:02.916Z,0.30
2019-03-13T10:30:52.642Z,0.33
2019-03-13T10:33:32.314Z,0.28
2019-03-13T10:36:17.678Z,0.50
2019-03-13T10:39:03.074Z,0.40
2019-03-13T10:41:53.019Z,0.30
2019-03-13T10:44:32.952Z,0.20
2019-03-13T10:47:22.381Z,0.20
2019-03-13T10:50:09.395Z,0.47
2019-03-13T10:53:06.486Z,0.40
2019-03-13T10:55:56.241Z,0.20
2019-03-13T10:58:33.470Z,0.23
2019-03-13T11:01:16.435Z,0.20
2019-03-13T11:04:03.177Z,0.30
2019-03-13T11:06:55.306Z,0.13
2019-03-13T11:09:40.134Z,0.28
2019-03-13T11:12:22.495Z,0.20
2019-03-13T11:15:07.459Z,0.25
2019-03-13T11:17:52.385Z,0.37
2019-03-13T11:20:45.441Z,0.23
2019-03-13T11:23:29.294Z,0.40
2019-03-13T11:26:19.157Z,0.30
2019-03-13T11:29:10.288Z,0.35
2019-03-13T11:31:58.759Z,0.40
2019-03-13T11:34:48.398Z,0.37
2019-03-13T11:37:47.034Z,0.30
2019-03-13T11:40:41.403Z,0.40
2019-03-13T11:43:28.099Z,0.30
2019-03-13T11:46:14.410Z,0.30
2019-03-13T11:48:59.902Z,0.40
2019-03-13T11:51:53.030Z,0.40
2019-03-13T11:54:40.061Z,0.65
2019-03-13T11:57:26.823Z,0.42
2019-03-13T12:00:13.009Z,0.50
2019-03-13T12:03:03.185Z,0.47
2019-03-13T12:05:53.017Z,0.30
2019-03-13T12:08:32.028Z,0.50
2019-03-13T12:11:10.945Z,0.40
2019-03-13T12:13:58.066Z,0.30
2019-03-13T12:16:48.003Z,0.40
2019-03-13T12:19:43.833Z,0.47
2019-03-13T12:22:34.172Z,0.50
2019-03-13T12:25:14.323Z,0.42
2019-03-13T12:28:00.108Z,0.42
2019-03-13T12:30:45.757Z,0.75
2019-03-13T12:33:38.362Z,0.65
2019-03-13T12:36:15.338Z,0.50
2019-03-13T12:38:54.349Z,0.60
2019-03-13T12:41:53.214Z,0.33
2019-03-13T12:44:55.865Z,0.42
2019-03-13T12:47:54.787Z,0.45
2019-03-13T12:50:43.323Z,0.42
2019-03-13T12:53:39.583Z,0.50
2019-03-13T12:56:23.127Z,0.28
2019-03-13T12:59:06.281Z,0.42
2019-03-13T13:01:48.723Z,0.30
2019-03-13T13:04:38.897Z,0.50
2019-03-13T13:07:38.016Z,0.45
2019-03-13T13:10:16.674Z,0.40
2019-03-13T13:13:01.953Z,0.30
2019-03-13T13:16:03.132Z,0.30
2019-03-13T13:18:52.843Z,0.65
2019-03-13T13:21:20.992Z,0.60
2019-03-13T13:23:49.159Z,0.37
2019-03-13T13:26:16.909Z,0.30
2019-03-13T13:28:44.153Z,0.40
2019-03-13T13:31:12.525Z,0.50
2019-03-13T13:33:40.093Z,0.53
2019-03-13T13:36:09.664Z,0.55
2019-03-13T13:38:37.528Z,0.40
2019-03-13T13:41:05.898Z,0.55
2019-03-13T13:43:33.495Z,0.60
2019-03-13T13:46:21.704Z,0.53
2019-03-13T13:48:49.422Z,0.50
2019-03-13T13:51:17.676Z,0.57
2019-03-13T13:53:45.170Z,0.55
2019-03-13T13:56:13.303Z,0.55
2019-03-13T13:58:41.569Z,0.78
2019-03-13T14:01:09.274Z,0.50
2019-03-13T14:03:37.192Z,0.55
2019-03-13T14:06:04.795Z,0.62
2019-03-13T14:08:32.194Z,0.68
2019-03-13T14:10:59.493Z,0.53
2019-03-13T14:13:27.233Z,0.42
2019-03-13T14:15:54.923Z,0.50
2019-03-13T14:18:22.442Z,0.60
2019-03-13T14:20:50.458Z,0.70
2019-03-13T14:23:18.670Z,0.40
2019-03-13T14:25:45.918Z,0.30
2019-03-13T14:28:14.047Z,0.45
2019-03-13T14:30:41.605Z,0.40
2019-03-13T14:33:09.429Z,0.45
2019-03-13T14:35:36.871Z,0.35
2019-03-13T14:38:04.094Z,0.50
2019-03-13T14:40:31.803Z,0.80
2019-03-13T14:42:59.381Z,0.70
2019-03-13T14:45:27.087Z,0.70
2019-03-13T14:47:55.117Z,0.47
2019-03-13T14:50:22.389Z,0.50
2019-03-13T14:52:49.721Z,0.60
2019-03-13T14:55:17.663Z,0.50
2019-03-13T14:57:45.591Z,0.75
2019-03-13T15:00:15.362Z,0.47
2019-03-13T15:02:43.898Z,0.50
2019-03-13T15:05:12.523Z,0.20
2019-03-13T15:07:41.036Z,1.22
2019-03-13T15:10:09.931Z,0.40
2019-03-13T15:12:37.238Z,0.50
2019-03-13T15:15:05.026Z,0.80
2019-03-13T15:17:33.069Z,0.70
2019-03-13T15:20:00.746Z,0.45
2019-03-13T15:22:28.260Z,1.35
2019-03-13T15:24:56.297Z,0.72
2019-03-13T15:27:23.919Z,0.65
2019-03-13T15:29:51.823Z,0.65
2019-03-13T15:32:20.098Z,0.30
2019-03-13T15:34:47.514Z,0.80
2019-03-13T15:37:15.509Z,0.40
2019-03-13T15:39:43.346Z,0.53
2019-03-13T15:42:12.268Z,0.80
2019-03-13T15:44:39.935Z,0.50
2019-03-13T15:47:08.162Z,1.40
2019-03-13T15:49:36.196Z,1.10
2019-03-13T15:52:04.808Z,0.93
2019-03-13T15:54:32.528Z,0.50
2019-03-13T15:57:00.271Z,0.95
2019-03-13T15:59:28.017Z,1.00
2019-03-13T16:01:55.919Z,0.57
2019-03-13T16:04:23.969Z,0.82
2019-03-13T16:06:51.675Z,0.50
2019-03-13T16:09:19.257Z,0.80
2019-03-13T16:11:47.529Z,0.65
2019-03-13T16:14:16.194Z,0.40
2019-03-13T16:16:43.642Z,0.62
2019-03-13T16:19:11.156Z,0.90
2019-03-13T16:21:39.134Z,0.55
2019-03-13T16:24:07.047Z,0.50
2019-03-13T16:26:34.970Z,0.30
2019-03-13T16:29:03.542Z,0.50
2019-03-13T16:31:32.479Z,0.50
2019-03-13T16:34:00.656Z,0.65
2019-03-13T16:36:29.053Z,0.50
2019-03-13T16:38:56.526Z,0.70
2019-03-13T16:41:23.910Z,0.70
2019-03-13T16:43:51.301Z,0.70
2019-03-13T16:46:19.258Z,0.50
2019-03-13T16:48:46.779Z,0.75
2019-03-13T16:51:14.015Z,0.70
2019-03-13T16:53:42.098Z,1.00
2019-03-13T16:56:09.697Z,0.82
2019-03-13T16:58:37.419Z,0.88
2019-03-13T17:01:05.031Z,0.70
2019-03-13T17:03:33.335Z,0.80
2019-03-13T17:06:01.799Z,0.50
2019-03-13T17:08:29.451Z,0.50
2019-03-13T17:10:57.471Z,0.60
2019-03-13T17:13:25.170Z,0.90
2019-03-13T17:15:53.506Z,0.80
2019-03-13T17:18:20.860Z,0.62
2019-03-13T17:20:48.984Z,0.85
2019-03-13T17:23:16.209Z,0.60
2019-03-13T17:25:44.744Z,0.53
2019-03-13T17:28:11.926Z,0.50
2019-03-13T17:30:48.724Z,0.30
2019-03-13T17:33:28.392Z,0.40
2019-03-13T17:36:07.214Z,0.40
2019-03-13T17:38:48.512Z,0.60
2019-03-13T17:41:27.013Z,0.47
2019-03-13T17:44:05.222Z,0.68
2019-03-13T17:46:54.765Z,1.00
2019-03-13T17:49:47.657Z,0.60
2019-03-13T17:52:42.276Z,0.90
2019-03-13T17:55:32.104Z,0.80
2019-03-13T17:58:30.210Z,0.55
2019-03-13T18:01:34.785Z,0.30
2019-03-13T18:04:26.718Z,1.00
2019-03-13T18:07:26.888Z,0.95
2019-03-13T18:10:26.969Z,0.70
2019-03-13T18:13:27.986Z,1.30
2019-03-13T18:16:21.748Z,1.60
2019-03-13T18:19:11.045Z,1.07
2019-03-13T18:21:58.103Z,0.72
2019-03-13T18:24:58.959Z,1.10
2019-03-13T18:27:49.441Z,0.85
2019-03-13T18:33:27.703Z,0.50
2019-03-13T18:36:19.259Z,1.00
2019-03-13T18:39:18.325Z,0.95
2019-03-13T18:42:10.284Z,0.80
2019-03-13T18:45:11.039Z,1.00
2019-03-13T18:48:19.913Z,0.53
2019-03-13T18:51:16.125Z,1.30
2019-03-13T18:53:49.499Z,1.10
2019-03-13T18:56:23.373Z,1.05
2019-03-13T18:59:09.093Z,0.95
2019-03-13T19:01:59.067Z,1.00
2019-03-13T19:04:46.633Z,1.17
2019-03-13T19:07:34.534Z,1.30
2019-03-13T19:10:21.547Z,0.95
2019-03-13T19:13:02.138Z,0.95
2019-03-13T19:15:50.509Z,1.20
2019-03-13T19:18:29.301Z,1.45
2019-03-13T19:21:03.128Z,1.25
2019-03-13T19:23:37.006Z,1.30
2019-03-13T19:26:11.887Z,0.93
2019-03-13T19:28:42.859Z,1.22
2019-03-13T19:31:19.765Z,1.10
2019-03-13T19:33:53.066Z,1.07
2019-03-13T19:36:24.117Z,1.10
2019-03-13T19:38:55.972Z,1.00
2019-03-13T19:41:26.985Z,1.00
2019-03-13T19:44:02.913Z,1.20
2019-03-13T19:46:34.866Z,1.07
2019-03-13T19:49:04.573Z,1.17
2019-03-13T19:51:36.678Z,1.17
2019-03-13T19:54:06.861Z,0.80
2019-03-13T19:56:38.633Z,1.32
2019-03-13T19:59:11.924Z,1.02
2019-03-13T20:01:44.153Z,1.20
2019-03-13T20:04:15.097Z,0.50
2019-03-13T20:06:46.824Z,0.72
2019-03-13T20:09:18.495Z,0.90
2019-03-13T20:12:03.626Z,0.80
2019-03-13T20:14:35.054Z,0.60
2019-03-13T20:17:17.778Z,0.80
2019-03-13T20:19:54.726Z,1.02
2019-03-13T20:22:25.714Z,1.10
2019-03-13T20:25:00.495Z,0.65
2019-03-13T20:27:31.794Z,0.85
2019-03-13T20:30:03.309Z,1.10
2019-03-13T20:32:35.449Z,1.00
2019-03-13T20:35:06.680Z,1.15
2019-03-13T20:37:42.399Z,1.00
2019-03-13T20:40:14.081Z,0.80
2019-03-13T20:42:42.997Z,0.78
2019-03-13T20:45:12.026Z,0.80
2019-03-13T20:47:41.703Z,1.05
2019-03-13T20:50:12.956Z,0.75
2019-03-13T20:52:41.394Z,0.90
2019-03-13T20:55:10.472Z,0.82
2019-03-13T20:57:38.126Z,0.75
2019-03-13T21:00:06.095Z,1.20
2019-03-13T21:02:38.184Z,0.80
2019-03-13T21:05:06.507Z,1.20
2019-03-13T21:07:36.398Z,0.68
2019-03-13T21:10:05.309Z,0.68
2019-03-13T21:12:34.019Z,0.60
2019-03-13T21:15:01.791Z,1.00
2019-03-13T21:17:32.163Z,1.00
2019-03-13T21:19:59.766Z,0.65
2019-03-13T21:22:30.970Z,0.82
2019-03-13T21:24:58.637Z,0.78
2019-03-13T21:27:26.860Z,0.50
2019-03-13T21:29:57.815Z,0.90
2019-03-13T21:32:25.522Z,0.72
2019-03-13T21:34:53.215Z,1.55
2019-03-13T21:37:21.446Z,0.90
2019-03-13T21:39:49.376Z,0.80
2019-03-13T21:42:18.248Z,1.27
2019-03-13T21:44:48.938Z,0.70
2019-03-13T21:49:45.965Z,1.00
2019-03-13T21:52:14.526Z,0.50
2019-03-13T21:54:42.070Z,0.93
2019-03-13T21:57:10.338Z,0.98
2019-03-13T21:59:37.663Z,0.60
2019-03-13T22:02:05.734Z,0.68
2019-03-13T22:04:33.118Z,0.95
2019-03-13T22:07:01.493Z,0.88
2019-03-13T22:09:29.351Z,1.32
2019-03-13T22:11:57.363Z,0.42
2019-03-13T22:14:25.468Z,0.98
2019-03-13T22:16:53.225Z,0.80
2019-03-13T22:19:20.627Z,1.22
2019-03-13T22:21:48.119Z,0.70
2019-03-13T22:24:15.641Z,0.70
2019-03-13T22:26:43.721Z,0.75
2019-03-13T22:29:11.307Z,0.90
2019-03-13T22:31:39.825Z,0.62
2019-03-13T22:34:07.849Z,0.80
2019-03-13T22:36:35.780Z,0.62
2019-03-13T22:39:05.246Z,0.78
2019-03-13T22:41:33.196Z,0.60
2019-03-13T22:44:00.402Z,0.90
2019-03-13T22:46:27.787Z,0.80
2019-03-13T22:48:58.404Z,0.30
2019-03-13T22:51:25.000Z,0.70
2019-03-13T22:53:53.274Z,0.53
2019-03-13T22:56:22.346Z,0.33
2019-03-13T22:58:50.088Z,1.07
2019-03-13T23:01:19.048Z,0.90
2019-03-13T23:03:46.976Z,0.80
2019-03-13T23:06:14.306Z,1.10
2019-03-13T23:08:42.270Z,0.70
2019-03-13T23:11:12.587Z,1.20
2019-03-13T23:13:40.547Z,0.80
2019-03-13T23:16:08.783Z,0.50
2019-03-13T23:18:36.007Z,0.62
2019-03-13T23:21:03.655Z,0.70
2019-03-13T23:23:32.217Z,0.80
2019-03-13T23:25:59.660Z,1.02
2019-03-13T23:28:27.265Z,0.50
2019-03-13T23:30:55.755Z,1.32
2019-03-13T23:33:23.575Z,1.30
2019-03-13T23:35:56.639Z,0.80
2019-03-13T23:38:24.050Z,1.00
2019-03-13T23:40:51.575Z,1.22
2019-03-13T23:43:19.459Z,1.30
2019-03-13T23:45:46.930Z,1.17
2019-03-13T23:48:14.463Z,1.10
2019-03-13T23:50:42.341Z,1.30
2019-03-13T23:53:09.955Z,1.10
2019-03-13T23:55:37.871Z,1.30
2019-03-13T23:58:05.433Z,1.87
